sensor_id;sensor_type;location;lat;lon;timestamp;pressure;altitude;pressure_sealevel;temperature;humidity
66479;BME280;53294;47.912;13.526;2023-05-10T00:00:45;95591.06;;;12.61;56.30
66479;BME280;53294;47.912;13.526;2023-05-10T00:03:11;95589.97;;;12.53;56.77
66479;BME280;53294;47.912;13.526;2023-05-10T00:05:38;95587.47;;;12.48;57.01
66479;BME280;53294;47.912;13.526;2023-05-10T00:08:05;95573.09;;;12.73;55.41
66479;BME280;53294;47.912;13.526;2023-05-10T00:10:31;95574.16;;;12.90;54.57
66479;BME280;53294;47.912;13.526;2023-05-10T00:12:58;95580.28;;;12.99;54.69
66479;BME280;53294;47.912;13.526;2023-05-10T00:15:25;95584.72;;;12.65;56.91
66479;BME280;53294;47.912;13.526;2023-05-10T00:17:51;95598.81;;;12.62;56.85
66479;BME280;53294;47.912;13.526;2023-05-10T00:20:18;95596.13;;;12.71;56.92
66479;BME280;53294;47.912;13.526;2023-05-10T00:22:45;95585.53;;;12.57;57.31
66479;BME280;53294;47.912;13.526;2023-05-10T00:25:11;95594.38;;;12.66;56.60
66479;BME280;53294;47.912;13.526;2023-05-10T00:27:38;95596.69;;;12.85;55.93
66479;BME280;53294;47.912;13.526;2023-05-10T00:30:05;95586.13;;;13.01;55.24
66479;BME280;53294;47.912;13.526;2023-05-10T00:32:33;95582.44;;;13.15;55.08
66479;BME280;53294;47.912;13.526;2023-05-10T00:34:59;95582.22;;;13.20;55.44
66479;BME280;53294;47.912;13.526;2023-05-10T00:37:26;95580.72;;;13.31;54.58
66479;BME280;53294;47.912;13.526;2023-05-10T00:39:53;95588.28;;;13.17;55.36
66479;BME280;53294;47.912;13.526;2023-05-10T00:42:19;95587.19;;;13.18;55.31
66479;BME280;53294;47.912;13.526;2023-05-10T00:44:46;95585.88;;;13.24;55.31
66479;BME280;53294;47.912;13.526;2023-05-10T00:47:13;95588.56;;;13.24;55.49
66479;BME280;53294;47.912;13.526;2023-05-10T00:49:40;95582.19;;;13.28;55.22
66479;BME280;53294;47.912;13.526;2023-05-10T00:52:08;95581.25;;;13.33;55.17
66479;BME280;53294;47.912;13.526;2023-05-10T00:54:36;95575.66;;;13.38;54.95
66479;BME280;53294;47.912;13.526;2023-05-10T00:57:02;95572.19;;;13.29;55.29
66479;BME280;53294;47.912;13.526;2023-05-10T00:59:29;95578.78;;;13.40;54.74
66479;BME280;53294;47.912;13.526;2023-05-10T01:01:57;95580.84;;;13.43;55.37
66479;BME280;53294;47.912;13.526;2023-05-10T01:04:24;95577.09;;;13.57;54.83
66479;BME280;53294;47.912;13.526;2023-05-10T01:06:54;95578.03;;;13.31;55.95
66479;BME280;53294;47.912;13.526;2023-05-10T01:09:22;95578.78;;;13.40;55.72
66479;BME280;53294;47.912;13.526;2023-05-10T01:11:49;95581.16;;;13.42;55.91
66479;BME280;53294;47.912;13.526;2023-05-10T01:14:18;95584.38;;;13.56;55.29
66479;BME280;53294;47.912;13.526;2023-05-10T01:16:47;95585.66;;;13.59;55.29
66479;BME280;53294;47.912;13.526;2023-05-10T01:19:26;95582.75;;;13.64;55.44
66479;BME280;53294;47.912;13.526;2023-05-10T01:40:52;95578.00;;;13.61;56.78
66479;BME280;53294;47.912;13.526;2023-05-10T01:43:28;95577.91;;;13.36;57.33
66479;BME280;53294;47.912;13.526;2023-05-10T01:48:28;95581.81;;;13.81;55.81
66479;BME280;53294;47.912;13.526;2023-05-10T01:50:56;95574.94;;;13.92;54.90
66479;BME280;53294;47.912;13.526;2023-05-10T01:53:24;95579.06;;;13.90;55.58
66479;BME280;53294;47.912;13.526;2023-05-10T01:55:53;95574.06;;;14.00;55.13
66479;BME280;53294;47.912;13.526;2023-05-10T01:58:31;95575.75;;;14.05;54.80
66479;BME280;53294;47.912;13.526;2023-05-10T02:01:01;95582.38;;;13.95;55.41
66479;BME280;53294;47.912;13.526;2023-05-10T02:03:30;95582.03;;;13.97;55.47
66479;BME280;53294;47.912;13.526;2023-05-10T02:05:58;95572.56;;;13.91;55.73
66479;BME280;53294;47.912;13.526;2023-05-10T02:08:26;95566.81;;;13.92;55.51
66479;BME280;53294;47.912;13.526;2023-05-10T02:10:55;95579.44;;;14.00;55.07
66479;BME280;53294;47.912;13.526;2023-05-10T02:13:24;95575.50;;;13.98;55.73
66479;BME280;53294;47.912;13.526;2023-05-10T02:15:53;95579.47;;;13.79;56.57
66479;BME280;53294;47.912;13.526;2023-05-10T02:18:22;95572.81;;;13.77;56.85
66479;BME280;53294;47.912;13.526;2023-05-10T02:20:51;95572.81;;;13.77;56.83
66479;BME280;53294;47.912;13.526;2023-05-10T02:23:20;95576.63;;;13.76;57.27
66479;BME280;53294;47.912;13.526;2023-05-10T02:25:48;95580.38;;;13.62;58.77
66479;BME280;53294;47.912;13.526;2023-05-10T02:28:16;95572.88;;;13.68;58.12
66479;BME280;53294;47.912;13.526;2023-05-10T02:30:43;95574.19;;;13.62;58.47
66479;BME280;53294;47.912;13.526;2023-05-10T02:33:11;95566.94;;;13.75;58.37
66479;BME280;53294;47.912;13.526;2023-05-10T02:35:38;95573.81;;;13.72;59.80
66479;BME280;53294;47.912;13.526;2023-05-10T02:38:06;95574.47;;;13.48;61.24
66479;BME280;53294;47.912;13.526;2023-05-10T02:40:35;95571.28;;;13.67;59.43
66479;BME280;53294;47.912;13.526;2023-05-10T02:43:04;95577.25;;;13.81;59.14
66479;BME280;53294;47.912;13.526;2023-05-10T02:45:34;95575.78;;;13.63;59.96
66479;BME280;53294;47.912;13.526;2023-05-10T02:48:02;95569.97;;;13.73;58.75
66479;BME280;53294;47.912;13.526;2023-05-10T02:50:30;95573.41;;;13.82;59.21
66479;BME280;53294;47.912;13.526;2023-05-10T02:53:07;95568.97;;;13.99;57.95
66479;BME280;53294;47.912;13.526;2023-05-10T02:55:39;95567.22;;;14.03;57.55
66479;BME280;53294;47.912;13.526;2023-05-10T02:58:07;95570.13;;;14.10;57.29
66479;BME280;53294;47.912;13.526;2023-05-10T03:00:33;95570.34;;;14.05;58.61
66479;BME280;53294;47.912;13.526;2023-05-10T03:03:02;95575.34;;;14.15;58.21
66479;BME280;53294;47.912;13.526;2023-05-10T03:05:28;95577.13;;;14.11;58.64
66479;BME280;53294;47.912;13.526;2023-05-10T03:07:55;95586.16;;;14.15;59.13
66479;BME280;53294;47.912;13.526;2023-05-10T03:10:27;95577.19;;;14.36;58.99
66479;BME280;53294;47.912;13.526;2023-05-10T03:13:14;95583.66;;;14.56;57.97
66479;BME280;53294;47.912;13.526;2023-05-10T03:15:58;95586.00;;;14.45;59.24
66479;BME280;53294;47.912;13.526;2023-05-10T03:18:34;95592.22;;;14.12;63.22
66479;BME280;53294;47.912;13.526;2023-05-10T03:21:07;95594.22;;;14.03;65.72
66479;BME280;53294;47.912;13.526;2023-05-10T03:23:50;95596.56;;;13.62;70.68
66479;BME280;53294;47.912;13.526;2023-05-10T03:26:21;95596.19;;;13.94;66.63
66479;BME280;53294;47.912;13.526;2023-05-10T03:28:50;95586.53;;;14.26;64.36
66479;BME280;53294;47.912;13.526;2023-05-10T03:31:18;95586.72;;;14.54;62.52
66479;BME280;53294;47.912;13.526;2023-05-10T03:33:49;95599.34;;;14.63;62.63
66479;BME280;53294;47.912;13.526;2023-05-10T03:36:16;95592.31;;;14.49;64.54
66479;BME280;53294;47.912;13.526;2023-05-10T03:38:43;95595.97;;;14.66;63.03
66479;BME280;53294;47.912;13.526;2023-05-10T03:41:09;95597.75;;;14.62;63.44
66479;BME280;53294;47.912;13.526;2023-05-10T03:43:36;95605.59;;;14.42;66.38
66479;BME280;53294;47.912;13.526;2023-05-10T03:46:03;95611.03;;;13.58;72.59
66479;BME280;53294;47.912;13.526;2023-05-10T03:48:33;95614.59;;;12.81;75.03
66479;BME280;53294;47.912;13.526;2023-05-10T03:51:00;95625.69;;;12.24;77.45
66479;BME280;53294;47.912;13.526;2023-05-10T03:53:26;95625.06;;;12.00;78.57
66479;BME280;53294;47.912;13.526;2023-05-10T03:55:53;95622.66;;;11.73;80.50
66479;BME280;53294;47.912;13.526;2023-05-10T03:58:20;95621.72;;;11.68;80.40
66479;BME280;53294;47.912;13.526;2023-05-10T04:00:46;95625.03;;;11.74;79.57
66479;BME280;53294;47.912;13.526;2023-05-10T04:03:13;95620.63;;;11.96;76.95
66479;BME280;53294;47.912;13.526;2023-05-10T04:05:40;95618.53;;;12.36;74.29
66479;BME280;53294;47.912;13.526;2023-05-10T04:08:07;95625.78;;;12.62;72.46
66479;BME280;53294;47.912;13.526;2023-05-10T04:10:34;95626.00;;;12.87;70.02
66479;BME280;53294;47.912;13.526;2023-05-10T04:13:00;95624.84;;;12.97;69.34
66479;BME280;53294;47.912;13.526;2023-05-10T04:15:27;95612.84;;;13.24;68.51
66479;BME280;53294;47.912;13.526;2023-05-10T04:17:54;95620.19;;;13.15;70.18
66479;BME280;53294;47.912;13.526;2023-05-10T04:20:21;95617.38;;;13.02;72.17
66479;BME280;53294;47.912;13.526;2023-05-10T04:22:47;95633.34;;;13.16;71.76
66479;BME280;53294;47.912;13.526;2023-05-10T04:25:14;95623.63;;;13.24;71.71
66479;BME280;53294;47.912;13.526;2023-05-10T04:27:41;95619.13;;;13.37;70.35
66479;BME280;53294;47.912;13.526;2023-05-10T04:30:08;95616.59;;;13.61;69.10
66479;BME280;53294;47.912;13.526;2023-05-10T04:32:35;95620.41;;;13.81;67.91
66479;BME280;53294;47.912;13.526;2023-05-10T04:35:01;95617.56;;;13.99;67.33
66479;BME280;53294;47.912;13.526;2023-05-10T04:37:30;95623.44;;;13.80;69.26
66479;BME280;53294;47.912;13.526;2023-05-10T04:39:56;95624.44;;;13.75;69.52
66479;BME280;53294;47.912;13.526;2023-05-10T04:42:23;95615.81;;;14.03;67.87
66479;BME280;53294;47.912;13.526;2023-05-10T04:44:49;95624.47;;;14.09;66.94
66479;BME280;53294;47.912;13.526;2023-05-10T04:47:18;95621.59;;;14.14;66.96
66479;BME280;53294;47.912;13.526;2023-05-10T04:49:44;95625.53;;;14.16;67.14
66479;BME280;53294;47.912;13.526;2023-05-10T04:52:11;95628.03;;;14.22;67.15
66479;BME280;53294;47.912;13.526;2023-05-10T04:54:38;95628.75;;;14.43;66.34
66479;BME280;53294;47.912;13.526;2023-05-10T04:57:04;95623.88;;;14.24;67.22
66479;BME280;53294;47.912;13.526;2023-05-10T04:59:31;95619.66;;;14.48;66.13
66479;BME280;53294;47.912;13.526;2023-05-10T05:01:58;95624.13;;;14.65;65.38
66479;BME280;53294;47.912;13.526;2023-05-10T05:04:24;95624.19;;;14.56;65.99
66479;BME280;53294;47.912;13.526;2023-05-10T05:06:51;95633.59;;;14.71;65.31
66479;BME280;53294;47.912;13.526;2023-05-10T05:09:19;95630.91;;;14.71;65.23
66479;BME280;53294;47.912;13.526;2023-05-10T05:11:46;95627.78;;;14.81;64.76
66479;BME280;53294;47.912;13.526;2023-05-10T05:14:12;95626.44;;;14.87;64.64
66479;BME280;53294;47.912;13.526;2023-05-10T05:16:39;95631.59;;;14.80;65.53
66479;BME280;53294;47.912;13.526;2023-05-10T05:19:06;95625.59;;;14.62;65.93
66479;BME280;53294;47.912;13.526;2023-05-10T05:21:33;95630.97;;;14.29;68.20
66479;BME280;53294;47.912;13.526;2023-05-10T05:23:59;95636.47;;;14.53;66.38
66479;BME280;53294;47.912;13.526;2023-05-10T05:26:26;95624.63;;;14.79;65.65
66479;BME280;53294;47.912;13.526;2023-05-10T05:28:53;95628.78;;;14.89;65.52
66479;BME280;53294;47.912;13.526;2023-05-10T05:31:21;95626.09;;;15.01;65.62
66479;BME280;53294;47.912;13.526;2023-05-10T05:33:47;95628.38;;;14.99;66.19
66479;BME280;53294;47.912;13.526;2023-05-10T05:36:14;95634.91;;;15.11;65.58
66479;BME280;53294;47.912;13.526;2023-05-10T05:38:41;95637.03;;;15.05;66.06
66479;BME280;53294;47.912;13.526;2023-05-10T05:41:07;95639.97;;;15.24;65.47
66479;BME280;53294;47.912;13.526;2023-05-10T05:43:34;95646.06;;;15.21;66.14
66479;BME280;53294;47.912;13.526;2023-05-10T05:46:03;95640.41;;;15.26;66.03
66479;BME280;53294;47.912;13.526;2023-05-10T05:48:30;95644.25;;;15.25;66.75
66479;BME280;53294;47.912;13.526;2023-05-10T05:50:57;95637.72;;;15.14;66.97
66479;BME280;53294;47.912;13.526;2023-05-10T05:53:24;95644.13;;;15.34;66.01
66479;BME280;53294;47.912;13.526;2023-05-10T05:55:55;95642.44;;;15.54;64.63
66479;BME280;53294;47.912;13.526;2023-05-10T05:58:22;95643.13;;;15.51;64.92
66479;BME280;53294;47.912;13.526;2023-05-10T06:00:50;95643.81;;;15.48;64.74
66479;BME280;53294;47.912;13.526;2023-05-10T06:03:18;95642.88;;;15.44;64.01
66479;BME280;53294;47.912;13.526;2023-05-10T06:05:44;95646.25;;;15.53;63.03
66479;BME280;53294;47.912;13.526;2023-05-10T06:08:11;95644.56;;;15.49;63.38
66479;BME280;53294;47.912;13.526;2023-05-10T06:10:38;95640.66;;;15.46;63.78
66479;BME280;53294;47.912;13.526;2023-05-10T06:13:04;95644.13;;;15.47;61.96
66479;BME280;53294;47.912;13.526;2023-05-10T06:15:31;95655.97;;;15.42;62.80
66479;BME280;53294;47.912;13.526;2023-05-10T06:17:59;95657.31;;;15.11;64.67
66479;BME280;53294;47.912;13.526;2023-05-10T06:20:25;95658.91;;;15.24;63.44
66479;BME280;53294;47.912;13.526;2023-05-10T06:22:52;95656.56;;;15.35;63.50
66479;BME280;53294;47.912;13.526;2023-05-10T06:25:19;95652.16;;;15.43;62.87
66479;BME280;53294;47.912;13.526;2023-05-10T06:27:46;95651.56;;;15.50;61.67
66479;BME280;53294;47.912;13.526;2023-05-10T06:30:18;95658.69;;;15.30;62.94
66479;BME280;53294;47.912;13.526;2023-05-10T06:32:44;95662.41;;;15.37;63.72
66479;BME280;53294;47.912;13.526;2023-05-10T06:35:12;95673.47;;;15.44;63.96
66479;BME280;53294;47.912;13.526;2023-05-10T06:37:39;95670.84;;;15.60;63.60
66479;BME280;53294;47.912;13.526;2023-05-10T06:40:06;95668.25;;;15.64;64.10
66479;BME280;53294;47.912;13.526;2023-05-10T06:42:33;95666.88;;;15.70;64.23
66479;BME280;53294;47.912;13.526;2023-05-10T06:45:00;95672.44;;;15.61;64.21
66479;BME280;53294;47.912;13.526;2023-05-10T06:47:26;95674.56;;;15.56;65.18
66479;BME280;53294;47.912;13.526;2023-05-10T06:49:53;95675.16;;;15.61;65.93
66479;BME280;53294;47.912;13.526;2023-05-10T06:52:20;95678.06;;;15.32;66.89
66479;BME280;53294;47.912;13.526;2023-05-10T06:54:46;95689.53;;;14.92;69.27
66479;BME280;53294;47.912;13.526;2023-05-10T06:57:13;95692.41;;;14.74;70.80
66479;BME280;53294;47.912;13.526;2023-05-10T06:59:55;95689.09;;;15.14;68.80
66479;BME280;53294;47.912;13.526;2023-05-10T07:02:22;95688.06;;;15.06;69.11
66479;BME280;53294;47.912;13.526;2023-05-10T07:04:49;95681.44;;;15.04;69.42
66479;BME280;53294;47.912;13.526;2023-05-10T07:07:18;95691.31;;;14.87;69.46
66479;BME280;53294;47.912;13.526;2023-05-10T07:09:45;95695.47;;;14.51;71.88
66479;BME280;53294;47.912;13.526;2023-05-10T07:12:12;95693.16;;;14.41;71.99
66479;BME280;53294;47.912;13.526;2023-05-10T07:14:41;95694.13;;;14.58;72.14
66479;BME280;53294;47.912;13.526;2023-05-10T07:17:08;95696.41;;;14.13;73.37
66479;BME280;53294;47.912;13.526;2023-05-10T07:19:34;95695.63;;;14.13;74.38
66479;BME280;53294;47.912;13.526;2023-05-10T07:22:02;95696.94;;;14.07;74.21
66479;BME280;53294;47.912;13.526;2023-05-10T07:24:29;95697.06;;;14.10;73.44
66479;BME280;53294;47.912;13.526;2023-05-10T07:26:56;95696.00;;;13.81;75.01
66479;BME280;53294;47.912;13.526;2023-05-10T07:29:22;95701.00;;;13.92;75.38
66479;BME280;53294;47.912;13.526;2023-05-10T07:31:49;95698.25;;;14.22;73.61
66479;BME280;53294;47.912;13.526;2023-05-10T07:34:16;95690.53;;;14.32;72.80
66479;BME280;53294;47.912;13.526;2023-05-10T07:36:43;95698.09;;;14.39;72.47
66479;BME280;53294;47.912;13.526;2023-05-10T07:39:10;95693.88;;;14.50;72.13
66479;BME280;53294;47.912;13.526;2023-05-10T07:41:41;95701.00;;;14.34;73.52
66479;BME280;53294;47.912;13.526;2023-05-10T07:44:08;95700.19;;;14.54;71.86
66479;BME280;53294;47.912;13.526;2023-05-10T07:46:35;95702.53;;;14.77;70.53
66479;BME280;53294;47.912;13.526;2023-05-10T07:49:01;95707.13;;;14.43;71.33
66479;BME280;53294;47.912;13.526;2023-05-10T07:51:28;95705.56;;;14.00;71.96
66479;BME280;53294;47.912;13.526;2023-05-10T07:53:55;95712.84;;;13.78;71.54
66479;BME280;53294;47.912;13.526;2023-05-10T07:56:29;95716.38;;;13.70;71.23
66479;BME280;53294;47.912;13.526;2023-05-10T07:58:56;95713.66;;;13.40;72.51
66479;BME280;53294;47.912;13.526;2023-05-10T08:01:24;95706.72;;;13.22;73.09
66479;BME280;53294;47.912;13.526;2023-05-10T08:03:51;95716.94;;;13.07;73.66
66479;BME280;53294;47.912;13.526;2023-05-10T08:06:20;95717.41;;;13.09;73.55
66479;BME280;53294;47.912;13.526;2023-05-10T08:08:47;95719.31;;;13.18;74.00
66479;BME280;53294;47.912;13.526;2023-05-10T08:11:19;95723.53;;;13.36;73.86
66479;BME280;53294;47.912;13.526;2023-05-10T08:13:48;95722.56;;;13.32;74.13
66479;BME280;53294;47.912;13.526;2023-05-10T08:16:15;95718.28;;;13.70;72.73
66479;BME280;53294;47.912;13.526;2023-05-10T08:18:44;95730.06;;;13.65;73.41
66479;BME280;53294;47.912;13.526;2023-05-10T08:21:14;95722.50;;;14.09;71.73
66479;BME280;53294;47.912;13.526;2023-05-10T08:23:41;95716.31;;;14.30;71.11
66479;BME280;53294;47.912;13.526;2023-05-10T08:26:10;95724.19;;;14.35;70.59
66479;BME280;53294;47.912;13.526;2023-05-10T08:28:37;95723.66;;;14.42;70.69
66479;BME280;53294;47.912;13.526;2023-05-10T08:31:04;95720.97;;;14.63;70.12
66479;BME280;53294;47.912;13.526;2023-05-10T08:33:31;95725.31;;;14.76;69.67
66479;BME280;53294;47.912;13.526;2023-05-10T08:35:58;95726.38;;;14.96;69.50
66479;BME280;53294;47.912;13.526;2023-05-10T08:38:24;95728.31;;;15.08;69.46
66479;BME280;53294;47.912;13.526;2023-05-10T08:40:54;95725.75;;;15.24;67.98
66479;BME280;53294;47.912;13.526;2023-05-10T08:43:26;95723.84;;;15.37;67.17
66479;BME280;53294;47.912;13.526;2023-05-10T08:45:55;95724.22;;;15.48;66.98
66479;BME280;53294;47.912;13.526;2023-05-10T08:48:25;95729.28;;;15.49;67.17
66479;BME280;53294;47.912;13.526;2023-05-10T08:50:58;95730.41;;;15.60;67.50
66479;BME280;53294;47.912;13.526;2023-05-10T08:53:26;95732.53;;;15.55;68.37
66479;BME280;53294;47.912;13.526;2023-05-10T08:55:55;95727.13;;;15.67;67.81
66479;BME280;53294;47.912;13.526;2023-05-10T08:58:22;95730.50;;;15.76;67.77
66479;BME280;53294;47.912;13.526;2023-05-10T09:00:49;95729.75;;;15.88;67.58
66479;BME280;53294;47.912;13.526;2023-05-10T09:03:18;95738.75;;;15.43;68.28
66479;BME280;53294;47.912;13.526;2023-05-10T09:05:46;95738.72;;;15.31;68.26
66479;BME280;53294;47.912;13.526;2023-05-10T09:08:13;95741.41;;;14.51;71.04
66479;BME280;53294;47.912;13.526;2023-05-10T09:10:43;95742.38;;;14.47;71.95
66479;BME280;53294;47.912;13.526;2023-05-10T09:13:10;95740.91;;;14.49;71.88
66479;BME280;53294;47.912;13.526;2023-05-10T09:15:38;95753.19;;;14.26;73.63
66479;BME280;53294;47.912;13.526;2023-05-10T09:18:05;95749.81;;;14.29;73.88
66479;BME280;53294;47.912;13.526;2023-05-10T09:20:31;95759.19;;;13.80;75.62
66479;BME280;53294;47.912;13.526;2023-05-10T09:22:58;95768.34;;;13.58;77.86
66479;BME280;53294;47.912;13.526;2023-05-10T09:25:25;95767.97;;;13.30;78.89
66479;BME280;53294;47.912;13.526;2023-05-10T09:27:52;95770.72;;;13.60;78.42
66479;BME280;53294;47.912;13.526;2023-05-10T09:30:27;95770.94;;;13.85;76.68
66479;BME280;53294;47.912;13.526;2023-05-10T09:32:55;95772.66;;;13.51;77.35
66479;BME280;53294;47.912;13.526;2023-05-10T09:35:24;95773.31;;;13.48;78.10
66479;BME280;53294;47.912;13.526;2023-05-10T09:37:56;95778.84;;;13.51;78.11
66479;BME280;53294;47.912;13.526;2023-05-10T09:40:24;95773.94;;;13.53;78.39
66479;BME280;53294;47.912;13.526;2023-05-10T09:42:56;95781.34;;;13.65;77.39
66479;BME280;53294;47.912;13.526;2023-05-10T09:45:30;95779.22;;;13.32;78.67
66479;BME280;53294;47.912;13.526;2023-05-10T09:47:58;95778.06;;;13.51;78.46
66479;BME280;53294;47.912;13.526;2023-05-10T09:50:27;95777.03;;;13.64;77.57
66479;BME280;53294;47.912;13.526;2023-05-10T09:52:58;95782.63;;;13.89;76.94
66479;BME280;53294;47.912;13.526;2023-05-10T09:55:43;95786.25;;;14.02;76.86
66479;BME280;53294;47.912;13.526;2023-05-10T09:58:12;95768.94;;;14.24;75.47
66479;BME280;53294;47.912;13.526;2023-05-10T10:00:40;95783.97;;;14.12;76.18
66479;BME280;53294;47.912;13.526;2023-05-10T10:03:15;95781.06;;;13.88;77.21
66479;BME280;53294;47.912;13.526;2023-05-10T10:05:43;95784.53;;;13.97;76.44
66479;BME280;53294;47.912;13.526;2023-05-10T10:08:11;95782.44;;;14.24;75.19
66479;BME280;53294;47.912;13.526;2023-05-10T10:10:38;95786.69;;;14.04;75.53
66479;BME280;53294;47.912;13.526;2023-05-10T10:13:07;95781.06;;;13.88;75.34
66479;BME280;53294;47.912;13.526;2023-05-10T10:15:34;95788.78;;;13.68;76.36
66479;BME280;53294;47.912;13.526;2023-05-10T10:18:01;95790.22;;;13.65;77.48
66479;BME280;53294;47.912;13.526;2023-05-10T10:20:30;95790.47;;;13.81;76.87
66479;BME280;53294;47.912;13.526;2023-05-10T10:22:56;95785.53;;;13.83;75.65
66479;BME280;53294;47.912;13.526;2023-05-10T10:25:23;95786.97;;;14.11;74.84
66479;BME280;53294;47.912;13.526;2023-05-10T10:30:43;95782.94;;;13.96;75.70
66479;BME280;53294;47.912;13.526;2023-05-10T10:35:58;95783.97;;;14.76;73.16
66479;BME280;53294;47.912;13.526;2023-05-10T10:38:25;95780.66;;;14.91;72.53
66479;BME280;53294;47.912;13.526;2023-05-10T10:41:11;95782.13;;;14.88;72.74
66479;BME280;53294;47.912;13.526;2023-05-10T10:49:42;95793.53;;;13.15;77.49
66479;BME280;53294;47.912;13.526;2023-05-10T10:52:26;95792.44;;;13.07;79.17
66479;BME280;53294;47.912;13.526;2023-05-10T10:55:28;95799.09;;;13.01;80.16
66479;BME280;53294;47.912;13.526;2023-05-10T10:57:56;95797.41;;;12.53;80.93
66479;BME280;53294;47.912;13.526;2023-05-10T11:00:36;95786.47;;;12.41;81.05
66479;BME280;53294;47.912;13.526;2023-05-10T11:03:05;95799.13;;;12.49;81.60
66479;BME280;53294;47.912;13.526;2023-05-10T11:05:45;95793.44;;;12.59;81.38
66479;BME280;53294;47.912;13.526;2023-05-10T11:08:21;95794.69;;;12.79;81.41
66479;BME280;53294;47.912;13.526;2023-05-10T11:13:45;95797.38;;;12.88;81.11
66479;BME280;53294;47.912;13.526;2023-05-10T11:16:22;95798.59;;;13.25;79.42
66479;BME280;53294;47.912;13.526;2023-05-10T11:18:59;95787.34;;;13.71;77.15
66479;BME280;53294;47.912;13.526;2023-05-10T11:21:32;95791.97;;;14.00;76.25
66479;BME280;53294;47.912;13.526;2023-05-10T11:24:00;95785.47;;;14.22;75.92
66479;BME280;53294;47.912;13.526;2023-05-10T11:26:34;95784.16;;;14.28;75.43
66479;BME280;53294;47.912;13.526;2023-05-10T11:29:01;95793.25;;;14.24;75.62
66479;BME280;53294;47.912;13.526;2023-05-10T11:31:29;95785.44;;;14.01;76.00
66479;BME280;53294;47.912;13.526;2023-05-10T11:33:58;95796.53;;;13.78;76.47
66479;BME280;53294;47.912;13.526;2023-05-10T11:36:35;95790.38;;;13.69;77.40
66479;BME280;53294;47.912;13.526;2023-05-10T11:39:03;95790.94;;;13.83;77.10
66479;BME280;53294;47.912;13.526;2023-05-10T11:41:30;95787.31;;;14.09;75.98
66479;BME280;53294;47.912;13.526;2023-05-10T11:43:58;95798.19;;;13.92;78.29
66479;BME280;53294;47.912;13.526;2023-05-10T11:46:26;95795.38;;;13.79;78.11
66479;BME280;53294;47.912;13.526;2023-05-10T11:48:59;95795.22;;;13.85;78.37
66479;BME280;53294;47.912;13.526;2023-05-10T11:51:27;95794.00;;;14.03;76.18
66479;BME280;53294;47.912;13.526;2023-05-10T11:53:56;95788.78;;;14.28;76.20
66479;BME280;53294;47.912;13.526;2023-05-10T11:56:22;95792.63;;;14.69;74.99
66479;BME280;53294;47.912;13.526;2023-05-10T11:58:57;95785.00;;;14.83;74.61
66479;BME280;53294;47.912;13.526;2023-05-10T12:01:25;95778.63;;;14.88;73.14
66479;BME280;53294;47.912;13.526;2023-05-10T12:03:54;95784.41;;;14.99;72.51
66479;BME280;53294;47.912;13.526;2023-05-10T12:06:21;95782.50;;;15.12;72.23
66479;BME280;53294;47.912;13.526;2023-05-10T12:08:48;95784.28;;;15.41;71.36
66479;BME280;53294;47.912;13.526;2023-05-10T12:11:20;95784.53;;;15.60;71.29
66479;BME280;53294;47.912;13.526;2023-05-10T12:13:51;95779.56;;;15.62;71.63
66479;BME280;53294;47.912;13.526;2023-05-10T12:16:22;95775.31;;;15.74;71.56
66479;BME280;53294;47.912;13.526;2023-05-10T12:18:51;95780.63;;;15.83;72.11
66479;BME280;53294;47.912;13.526;2023-05-10T12:21:19;95783.09;;;15.75;71.64
66479;BME280;53294;47.912;13.526;2023-05-10T12:23:50;95786.38;;;16.06;71.09
66479;BME280;53294;47.912;13.526;2023-05-10T12:26:17;95780.69;;;16.23;70.59
66479;BME280;53294;47.912;13.526;2023-05-10T12:28:44;95775.28;;;16.23;71.18
66479;BME280;53294;47.912;13.526;2023-05-10T12:31:10;95775.28;;;16.23;71.19
66479;BME280;53294;47.912;13.526;2023-05-10T12:33:44;95779.56;;;16.37;70.52
66479;BME280;53294;47.912;13.526;2023-05-10T12:36:13;95778.41;;;16.50;70.03
66479;BME280;53294;47.912;13.526;2023-05-10T12:38:45;95782.63;;;16.35;69.91
66479;BME280;53294;47.912;13.526;2023-05-10T12:41:16;95783.72;;;16.46;69.41
66479;BME280;53294;47.912;13.526;2023-05-10T12:43:43;95777.81;;;16.57;69.21
66479;BME280;53294;47.912;13.526;2023-05-10T12:46:13;95787.16;;;16.59;69.05
66479;BME280;53294;47.912;13.526;2023-05-10T12:48:42;95779.56;;;16.37;69.32
66479;BME280;53294;47.912;13.526;2023-05-10T12:51:10;95784.03;;;16.57;69.27
66479;BME280;53294;47.912;13.526;2023-05-10T12:53:39;95783.78;;;16.62;68.59
66479;BME280;53294;47.912;13.526;2023-05-10T12:56:09;95779.50;;;16.61;67.36
66479;BME280;53294;47.912;13.526;2023-05-10T12:58:36;95774.66;;;16.55;68.02
66479;BME280;53294;47.912;13.526;2023-05-10T13:01:03;95782.66;;;16.63;68.06
66479;BME280;53294;47.912;13.526;2023-05-10T13:03:30;95779.25;;;16.66;67.57
66479;BME280;53294;47.912;13.526;2023-05-10T13:05:57;95781.47;;;16.77;66.94
66479;BME280;53294;47.912;13.526;2023-05-10T13:08:23;95782.19;;;16.74;66.80
66479;BME280;53294;47.912;13.526;2023-05-10T13:10:50;95785.06;;;16.81;66.63
66479;BME280;53294;47.912;13.526;2023-05-10T13:13:17;95780.53;;;16.97;65.74
66479;BME280;53294;47.912;13.526;2023-05-10T13:15:44;95773.63;;;17.00;65.57
66479;BME280;53294;47.912;13.526;2023-05-10T13:18:11;95782.09;;;16.98;65.85
66479;BME280;53294;47.912;13.526;2023-05-10T13:20:38;95776.47;;;16.91;66.75
66479;BME280;53294;47.912;13.526;2023-05-10T13:23:04;95777.81;;;16.85;66.23
66479;BME280;53294;47.912;13.526;2023-05-10T13:25:31;95768.69;;;16.90;66.07
66479;BME280;53294;47.912;13.526;2023-05-10T13:27:58;95766.69;;;17.02;66.11
66479;BME280;53294;47.912;13.526;2023-05-10T13:30:24;95771.63;;;17.13;65.77
66479;BME280;53294;47.912;13.526;2023-05-10T13:32:51;95763.84;;;17.11;65.52